Pittsfield, New Hampshire
Current Conditions -  °F | °C
As of 12:51 PM on Monday 22 Dec 2014 (Local Time) from KCON Reporting Station
Overcast Overcast  
Wind Chill: 36°   Ceiling: 4800
Heat Index: 36°   Visibility: 10mi
Dew Point: 28°   Wind: 3mph
Humidity: 73%   Direction: 260°W
Pressure: 30.36"   Gusts: NA
Location:  43.31°N, 71.32°W
Report Text: KCON 221751Z AUTO 26003KT 10SM OVC048 02/M02 A3036 RMK AO2 SLP284 T00221022 10022 21011 56015
Loading
Personal Weather Stations






























Interactive Weather Map New forecast layout! Learn more

10-Day Weather Forecast

Advertisements
Track Severe Weather on mobile